Температура и влажность:

T на улице: Влажность на улице:   T на кухне: T в комнате: Влажность в комнате:  T обогревателя:  T воды кухня:

24.2 C*

2018-05-25 15:20:02

30.7%

2018-05-25 15:20:02

26.60 C*

2018-05-25 15:20:02

24.4 C*

2018-05-25 15:20:02

33.1 %

2018-05-25 15:20:02

24.30 C*

2018-05-25 15:20:04

24.00 C*

2018-05-25 15:20:09

Движение! Фото с камеры время: 14:46 дата: 25 05 2018

Данные об электроэнергии
[1] ДАТА: 2018-05-22 МОЩНОСТЬ: 594.462 [кВт] СУММА: 2972.31 [руб]
[2] ДАТА: 2018-05-21 МОЩНОСТЬ: 594.183 [кВт] СУММА: 2970.915 [руб]
[3] ДАТА: 2018-05-20 МОЩНОСТЬ: 593.056 [кВт] СУММА: 2965.28 [руб]
[4] ДАТА: 2018-05-19 МОЩНОСТЬ: 586.859 [кВт] СУММА: 2934.295 [руб]
[5] ДАТА: 2018-05-18 МОЩНОСТЬ: 586.443 [кВт] СУММА: 2932.215 [руб]
[6] ДАТА: 2018-05-17 МОЩНОСТЬ: 586.145 [кВт] СУММА: 2930.725 [руб]
[7] ДАТА: 2018-05-16 МОЩНОСТЬ: 584.904 [кВт] СУММА: 2924.52 [руб]
[8] ДАТА: 2018-05-15 МОЩНОСТЬ: 581.734 [кВт] СУММА: 2908.67 [руб]
[9] ДАТА: 2018-05-14 МОЩНОСТЬ: 576.631 [кВт] СУММА: 2883.155 [руб]
[10] ДАТА: 2018-05-13 МОЩНОСТЬ: 572.936 [кВт] СУММА: 2864.68 [руб]
[11] ДАТА: 2018-05-09 МОЩНОСТЬ: 562.33 [кВт] СУММА: 2811.65 [руб]
[12] ДАТА: 2018-05-08 МОЩНОСТЬ: 562.097 [кВт] СУММА: 2810.485 [руб]
[13] ДАТА: 2018-05-07 МОЩНОСТЬ: 556.649 [кВт] СУММА: 2783.245 [руб]
[14] ДАТА: 2018-05-06 МОЩНОСТЬ: 548.277 [кВт] СУММА: 2741.385 [руб]
[15] ДАТА: 2018-05-05 МОЩНОСТЬ: 544.669 [кВт] СУММА: 2723.345 [руб]
[16] ДАТА: 2018-05-04 МОЩНОСТЬ: 541.036 [кВт] СУММА: 2705.18 [руб]
[17] ДАТА: 2018-05-03 МОЩНОСТЬ: 540.79 [кВт] СУММА: 2703.95 [руб]
[18] ДАТА: 2018-05-02 МОЩНОСТЬ: 539.682 [кВт] СУММА: 2698.41 [руб]
[19] ДАТА: 2018-05-01 МОЩНОСТЬ: 536.868 [кВт] СУММА: 2684.34 [руб]
[20] ДАТА: 2018-04-30 МОЩНОСТЬ: 531.41 [кВт] СУММА: 2657.05 [руб]
[21] ДАТА: 2018-04-29 МОЩНОСТЬ: 523.327 [кВт] СУММА: 2616.635 [руб]
[22] ДАТА: 2018-04-28 МОЩНОСТЬ: 522.538 [кВт] СУММА: 2612.69 [руб]
[23] ДАТА: 2018-04-23 МОЩНОСТЬ: 522.268 [кВт] СУММА: 2611.34 [руб]
[24] ДАТА: 2018-04-22 МОЩНОСТЬ: 516.68 [кВт] СУММА: 2583.4 [руб]
[25] ДАТА: 2018-04-21 МОЩНОСТЬ: 506.772 [кВт] СУММА: 2533.86 [руб]
[26] ДАТА: 2018-04-20 МОЩНОСТЬ: 505.414 [кВт] СУММА: 2527.07 [руб]
[27] ДАТА: 2018-04-19 МОЩНОСТЬ: 505.147 [кВт] СУММА: 2525.735 [руб]
[28] ДАТА: 2018-04-15 МОЩНОСТЬ: 504.096 [кВт] СУММА: 2520.48 [руб]
[29] ДАТА: 2018-04-14 МОЩНОСТЬ: 503.838 [кВт] СУММА: 2519.19 [руб]
[30] ДАТА: 2018-04-13 МОЩНОСТЬ: 503.574 [кВт] СУММА: 2517.87 [руб]
[31] ДАТА: 2018-04-12 МОЩНОСТЬ: 503.305 [кВт] СУММА: 2516.525 [руб]
[32] ДАТА: 2018-04-11 МОЩНОСТЬ: 503.031 [кВт] СУММА: 2515.155 [руб]
[33] ДАТА: 2018-04-10 МОЩНОСТЬ: 502.766 [кВт] СУММА: 2513.83 [руб]
[34] ДАТА: 2018-04-09 МОЩНОСТЬ: 502.496 [кВт] СУММА: 2512.48 [руб]
[35] ДАТА: 2018-04-08 МОЩНОСТЬ: 502.236 [кВт] СУММА: 2511.18 [руб]
[36] ДАТА: 2018-04-07 МОЩНОСТЬ: 501.982 [кВт] СУММА: 2509.91 [руб]
[37] ДАТА: 2018-04-06 МОЩНОСТЬ: 501.726 [кВт] СУММА: 2508.63 [руб]
[38] ДАТА: 2018-04-05 МОЩНОСТЬ: 501.48 [кВт] СУММА: 2507.4 [руб]
[39] ДАТА: 2018-04-04 МОЩНОСТЬ: 501.235 [кВт] СУММА: 2506.175 [руб]
[40] ДАТА: 2018-04-03 МОЩНОСТЬ: 500.985 [кВт] СУММА: 2504.925 [руб]
[41] ДАТА: 2018-04-02 МОЩНОСТЬ: 500.723 [кВт] СУММА: 2503.615 [руб]
[42] ДАТА: 2018-04-01 МОЩНОСТЬ: 500.471 [кВт] СУММА: 2502.355 [руб]
[43] ДАТА: 2018-03-31 МОЩНОСТЬ: 500.227 [кВт] СУММА: 2501.135 [руб]
[44] ДАТА: 2018-03-30 МОЩНОСТЬ: 499.987 [кВт] СУММА: 2499.935 [руб]
[45] ДАТА: 2018-03-29 МОЩНОСТЬ: 499.734 [кВт] СУММА: 2498.67 [руб]
[46] ДАТА: 2018-03-27 МОЩНОСТЬ: 499.16 [кВт] СУММА: 2495.8 [руб]
[47] ДАТА: 2018-03-26 МОЩНОСТЬ: 498.871 [кВт] СУММА: 2494.355 [руб]
[48] ДАТА: 2018-03-25 МОЩНОСТЬ: 498.585 [кВт] СУММА: 2492.925 [руб]
[49] ДАТА: 2018-03-24 МОЩНОСТЬ: 498.304 [кВт] СУММА: 2491.52 [руб]
[50] ДАТА: 2018-03-23 МОЩНОСТЬ: 498.02 [кВт] СУММА: 2490.1 [руб]
[51] ДАТА: 2018-03-22 МОЩНОСТЬ: 497.735 [кВт] СУММА: 2488.675 [руб]
[52] ДАТА: 2018-03-21 МОЩНОСТЬ: 497.447 [кВт] СУММА: 2487.235 [руб]
[53] ДАТА: 2018-03-20 МОЩНОСТЬ: 497.159 [кВт] СУММА: 2485.795 [руб]
[54] ДАТА: 2018-03-19 МОЩНОСТЬ: 496.872 [кВт] СУММА: 2484.36 [руб]
[55] ДАТА: 2018-03-18 МОЩНОСТЬ: 496.588 [кВт] СУММА: 2482.94 [руб]
[56] ДАТА: 2018-03-17 МОЩНОСТЬ: 496.315 [кВт] СУММА: 2481.575 [руб]
[57] ДАТА: 2018-03-13 МОЩНОСТЬ: 495.286 [кВт] СУММА: 2476.43 [руб]
[58] ДАТА: 2018-03-12 МОЩНОСТЬ: 495.025 [кВт] СУММА: 2475.125 [руб]
[59] ДАТА: 2018-03-11 МОЩНОСТЬ: 494.767 [кВт] СУММА: 2473.835 [руб]
[60] ДАТА: 2018-03-10 МОЩНОСТЬ: 494.514 [кВт] СУММА: 2472.57 [руб]
[61] ДАТА: 2018-03-09 МОЩНОСТЬ: 494.268 [кВт] СУММА: 2471.34 [руб]
[62] ДАТА: 2018-03-08 МОЩНОСТЬ: 494.022 [кВт] СУММА: 2470.11 [руб]
[63] ДАТА: 2018-03-07 МОЩНОСТЬ: 493.77 [кВт] СУММА: 2468.85 [руб]
[64] ДАТА: 2018-03-06 МОЩНОСТЬ: 493.52 [кВт] СУММА: 2467.6 [руб]
[65] ДАТА: 2018-03-05 МОЩНОСТЬ: 493.265 [кВт] СУММА: 2466.325 [руб]
[66] ДАТА: 2018-03-04 МОЩНОСТЬ: 493.016 [кВт] СУММА: 2465.08 [руб]
[67] ДАТА: 2018-03-03 МОЩНОСТЬ: 492.765 [кВт] СУММА: 2463.825 [руб]
[68] ДАТА: 2018-02-27 МОЩНОСТЬ: 491.633 [кВт] СУММА: 2458.165 [руб]
[69] ДАТА: 2018-02-26 МОЩНОСТЬ: 491.345 [кВт] СУММА: 2456.725 [руб]
[70] ДАТА: 2018-02-25 МОЩНОСТЬ: 491.059 [кВт] СУММА: 2455.295 [руб]
[71] ДАТА: 2018-02-24 МОЩНОСТЬ: 490.775 [кВт] СУММА: 2453.875 [руб]
[72] ДАТА: 2018-02-23 МОЩНОСТЬ: 490.492 [кВт] СУММА: 2452.46 [руб]
[73] ДАТА: 2018-02-22 МОЩНОСТЬ: 490.24 [кВт] СУММА: 2451.2 [руб]
[74] ДАТА: 2018-02-18 МОЩНОСТЬ: 489.205 [кВт] СУММА: 2446.025 [руб]
[75] ДАТА: 2018-02-17 МОЩНОСТЬ: 488.949 [кВт] СУММА: 2444.745 [руб]
[76] ДАТА: 2018-02-16 МОЩНОСТЬ: 488.683 [кВт] СУММА: 2443.415 [руб]
[77] ДАТА: 2018-02-15 МОЩНОСТЬ: 488.48 [кВт] СУММА: 2442.4 [руб]
[78] ДАТА: 2018-02-12 МОЩНОСТЬ: 487.715 [кВт] СУММА: 2438.575 [руб]
[79] ДАТА: 2018-02-11 МОЩНОСТЬ: 487.46 [кВт] СУММА: 2437.3 [руб]
[80] ДАТА: 2018-02-10 МОЩНОСТЬ: 487.203 [кВт] СУММА: 2436.015 [руб]
[81] ДАТА: 2018-02-06 МОЩНОСТЬ: 486.179 [кВт] СУММА: 2430.895 [руб]
[82] ДАТА: 2018-02-05 МОЩНОСТЬ: 485.925 [кВт] СУММА: 2429.625 [руб]
[83] ДАТА: 2018-02-04 МОЩНОСТЬ: 485.711 [кВт] СУММА: 2428.555 [руб]
[84] ДАТА: 2018-02-03 МОЩНОСТЬ: 485.448 [кВт] СУММА: 2427.24 [руб]
[85] ДАТА: 2018-02-02 МОЩНОСТЬ: 485.189 [кВт] СУММА: 2425.945 [руб]
[86] ДАТА: 2018-02-01 МОЩНОСТЬ: 484.929 [кВт] СУММА: 2424.645 [руб]
[87] ДАТА: 2018-01-31 МОЩНОСТЬ: 484.629 [кВт] СУММА: 2423.145 [руб]
[88] ДАТА: 2018-01-30 МОЩНОСТЬ: 484.331 [кВт] СУММА: 2421.655 [руб]
[89] ДАТА: 2018-01-29 МОЩНОСТЬ: 484.064 [кВт] СУММА: 2420.32 [руб]
[90] ДАТА: 2018-01-28 МОЩНОСТЬ: 483.807 [кВт] СУММА: 2419.035 [руб]
[91] ДАТА: 2018-01-27 МОЩНОСТЬ: 483.552 [кВт] СУММА: 2417.76 [руб]
[92] ДАТА: 2018-01-26 МОЩНОСТЬ: 483.299 [кВт] СУММА: 2416.495 [руб]
[93] ДАТА: 2018-01-25 МОЩНОСТЬ: 483.041 [кВт] СУММА: 2415.205 [руб]
[94] ДАТА: 2018-01-24 МОЩНОСТЬ: 482.784 [кВт] СУММА: 2413.92 [руб]
[95] ДАТА: 2018-01-23 МОЩНОСТЬ: 482.526 [кВт] СУММА: 2412.63 [руб]
[96] ДАТА: 2018-01-19 МОЩНОСТЬ: 481.515 [кВт] СУММА: 2407.575 [руб]
[97] ДАТА: 2018-01-18 МОЩНОСТЬ: 481.258 [кВт] СУММА: 2406.29 [руб]
[98] ДАТА: 2018-01-17 МОЩНОСТЬ: 481.003 [кВт] СУММА: 2405.015 [руб]
[99] ДАТА: 2018-01-16 МОЩНОСТЬ: 480.745 [кВт] СУММА: 2403.725 [руб]
[100] ДАТА: 2018-01-15 МОЩНОСТЬ: 480.487 [кВт] СУММА: 2402.435 [руб]
[101] ДАТА: 2018-01-14 МОЩНОСТЬ: 480.231 [кВт] СУММА: 2401.155 [руб]
[102] ДАТА: 2018-01-13 МОЩНОСТЬ: 479.977 [кВт] СУММА: 2399.885 [руб]
[103] ДАТА: 2018-01-12 МОЩНОСТЬ: 479.722 [кВт] СУММА: 2398.61 [руб]
[104] ДАТА: 2018-01-11 МОЩНОСТЬ: 479.462 [кВт] СУММА: 2397.31 [руб]
[105] ДАТА: 2018-01-10 МОЩНОСТЬ: 479.204 [кВт] СУММА: 2396.02 [руб]
[106] ДАТА: 2018-01-09 МОЩНОСТЬ: 478.949 [кВт] СУММА: 2394.745 [руб]
[107] ДАТА: 2018-01-08 МОЩНОСТЬ: 478.68 [кВт] СУММА: 2393.4 [руб]
[108] ДАТА: 2018-01-07 МОЩНОСТЬ: 478.414 [кВт] СУММА: 2392.07 [руб]
[109] ДАТА: 2018-01-06 МОЩНОСТЬ: 478.15 [кВт] СУММА: 2390.75 [руб]
[110] ДАТА: 2018-01-05 МОЩНОСТЬ: 477.875 [кВт] СУММА: 2389.375 [руб]
[111] ДАТА: 2018-01-01 МОЩНОСТЬ: 476.787 [кВт] СУММА: 2383.935 [руб]
[112] ДАТА: 2017-12-31 МОЩНОСТЬ: 476.512 [кВт] СУММА: 2382.56 [руб]
[113] ДАТА: 2017-12-30 МОЩНОСТЬ: 476.239 [кВт] СУММА: 2381.195 [руб]
[114] ДАТА: 2017-12-29 МОЩНОСТЬ: 475.973 [кВт] СУММА: 2379.865 [руб]
[115] ДАТА: 2017-12-25 МОЩНОСТЬ: 474.901 [кВт] СУММА: 2374.505 [руб]
[116] ДАТА: 2017-12-24 МОЩНОСТЬ: 474.625 [кВт] СУММА: 2373.125 [руб]
[117] ДАТА: 2017-12-23 МОЩНОСТЬ: 474.363 [кВт] СУММА: 2371.815 [руб]
[118] ДАТА: 2017-12-22 МОЩНОСТЬ: 474.1 [кВт] СУММА: 2370.5 [руб]
[119] ДАТА: 2017-12-21 МОЩНОСТЬ: 473.825 [кВт] СУММА: 2369.125 [руб]
[120] ДАТА: 2017-12-20 МОЩНОСТЬ: 473.554 [кВт] СУММА: 2367.77 [руб]
[121] ДАТА: 2017-12-19 МОЩНОСТЬ: 473.284 [кВт] СУММА: 2366.42 [руб]
[122] ДАТА: 2017-12-18 МОЩНОСТЬ: 473.007 [кВт] СУММА: 2365.035 [руб]
[123] ДАТА: 2017-12-17 МОЩНОСТЬ: 472.726 [кВт] СУММА: 2363.63 [руб]
[124] ДАТА: 2017-12-16 МОЩНОСТЬ: 472.45 [кВт] СУММА: 2362.25 [руб]
[125] ДАТА: 2017-12-15 МОЩНОСТЬ: 472.182 [кВт] СУММА: 2360.91 [руб]
[126] ДАТА: 2017-12-14 МОЩНОСТЬ: 471.906 [кВт] СУММА: 2359.53 [руб]
[127] ДАТА: 2017-12-13 МОЩНОСТЬ: 471.633 [кВт] СУММА: 2358.165 [руб]
[128] ДАТА: 2017-12-12 МОЩНОСТЬ: 471.366 [кВт] СУММА: 2356.83 [руб]
[129] ДАТА: 2017-12-11 МОЩНОСТЬ: 471.09 [кВт] СУММА: 2355.45 [руб]
[130] ДАТА: 2017-12-07 МОЩНОСТЬ: 470.001 [кВт] СУММА: 2350.005 [руб]
[131] ДАТА: 2017-12-06 МОЩНОСТЬ: 469.742 [кВт] СУММА: 2348.71 [руб]
[132] ДАТА: 2017-12-05 МОЩНОСТЬ: 469.477 [кВт] СУММА: 2347.385 [руб]
[133] ДАТА: 2017-12-04 МОЩНОСТЬ: 469.209 [кВт] СУММА: 2346.045 [руб]
[134] ДАТА: 2017-12-03 МОЩНОСТЬ: 468.939 [кВт] СУММА: 2344.695 [руб]
[135] ДАТА: 2017-12-02 МОЩНОСТЬ: 468.675 [кВт] СУММА: 2343.375 [руб]
[136] ДАТА: 2017-12-01 МОЩНОСТЬ: 468.399 [кВт] СУММА: 2341.995 [руб]
[137] ДАТА: 2017-11-30 МОЩНОСТЬ: 468.121 [кВт] СУММА: 2340.605 [руб]
[138] ДАТА: 2017-11-29 МОЩНОСТЬ: 467.854 [кВт] СУММА: 2339.27 [руб]
[139] ДАТА: 2017-11-28 МОЩНОСТЬ: 467.587 [кВт] СУММА: 2337.935 [руб]
[140] ДАТА: 2017-11-27 МОЩНОСТЬ: 467.327 [кВт] СУММА: 2336.635 [руб]
[141] ДАТА: 2017-11-26 МОЩНОСТЬ: 467.067 [кВт] СУММА: 2335.335 [руб]
[142] ДАТА: 2017-11-25 МОЩНОСТЬ: 466.814 [кВт] СУММА: 2334.07 [руб]
[143] ДАТА: 2017-11-24 МОЩНОСТЬ: 466.558 [кВт] СУММА: 2332.79 [руб]
[144] ДАТА: 2017-11-23 МОЩНОСТЬ: 466.298 [кВт] СУММА: 2331.49 [руб]
[145] ДАТА: 2017-11-22 МОЩНОСТЬ: 466.032 [кВт] СУММА: 2330.16 [руб]
[146] ДАТА: 2017-11-21 МОЩНОСТЬ: 465.772 [кВт] СУММА: 2328.86 [руб]
[147] ДАТА: 2017-11-20 МОЩНОСТЬ: 465.515 [кВт] СУММА: 2327.575 [руб]
[148] ДАТА: 2017-11-19 МОЩНОСТЬ: 465.26 [кВт] СУММА: 2326.3 [руб]
[149] ДАТА: 2017-11-14 МОЩНОСТЬ: 463.97 [кВт] СУММА: 2319.85 [руб]
[150] ДАТА: 2017-11-13 МОЩНОСТЬ: 463.712 [кВт] СУММА: 2318.56 [руб]
[151] ДАТА: 2017-11-09 МОЩНОСТЬ: 462.673 [кВт] СУММА: 2313.365 [руб]
[152] ДАТА: 2017-11-08 МОЩНОСТЬ: 462.411 [кВт] СУММА: 2312.055 [руб]
[153] ДАТА: 2017-11-07 МОЩНОСТЬ: 462.153 [кВт] СУММА: 2310.765 [руб]
[154] ДАТА: 2017-11-06 МОЩНОСТЬ: 461.894 [кВт] СУММА: 2309.47 [руб]
[155] ДАТА: 2017-11-05 МОЩНОСТЬ: 461.63 [кВт] СУММА: 2308.15 [руб]
[156] ДАТА: 2017-11-04 МОЩНОСТЬ: 461.366 [кВт] СУММА: 2306.83 [руб]
[157] ДАТА: 2017-11-03 МОЩНОСТЬ: 461.113 [кВт] СУММА: 2305.565 [руб]
[158] ДАТА: 2017-11-02 МОЩНОСТЬ: 460.862 [кВт] СУММА: 2304.31 [руб]
[159] ДАТА: 2017-11-01 МОЩНОСТЬ: 460.605 [кВт] СУММА: 2303.025 [руб]
[160] ДАТА: 2017-10-31 МОЩНОСТЬ: 460.355 [кВт] СУММА: 2301.775 [руб]
[161] ДАТА: 2017-10-30 МОЩНОСТЬ: 460.098 [кВт] СУММА: 2300.49 [руб]
[162] ДАТА: 2017-10-25 МОЩНОСТЬ: 458.754 [кВт] СУММА: 2293.77 [руб]
[163] ДАТА: 2017-10-24 МОЩНОСТЬ: 458.493 [кВт] СУММА: 2292.465 [руб]
[164] ДАТА: 2017-10-20 МОЩНОСТЬ: 457.394 [кВт] СУММА: 2286.97 [руб]
[165] ДАТА: 2017-10-19 МОЩНОСТЬ: 457.139 [кВт] СУММА: 2285.695 [руб]
[166] ДАТА: 2017-10-18 МОЩНОСТЬ: 456.862 [кВт] СУММА: 2284.31 [руб]
[167] ДАТА: 2017-10-17 МОЩНОСТЬ: 456.597 [кВт] СУММА: 2282.985 [руб]
[168] ДАТА: 2017-10-16 МОЩНОСТЬ: 456.341 [кВт] СУММА: 2281.705 [руб]
[169] ДАТА: 2017-10-15 МОЩНОСТЬ: 449.713 [кВт] СУММА: 2248.565 [руб]
[170] ДАТА: 2017-10-14 МОЩНОСТЬ: 439.625 [кВт] СУММА: 2198.125 [руб]
[171] ДАТА: 2017-10-13 МОЩНОСТЬ: 432.956 [кВт] СУММА: 2164.78 [руб]
[172] ДАТА: 2017-10-12 МОЩНОСТЬ: 432.614 [кВт] СУММА: 2163.07 [руб]
[173] ДАТА: 2017-10-11 МОЩНОСТЬ: 432.271 [кВт] СУММА: 2161.355 [руб]
[174] ДАТА: 2017-10-10 МОЩНОСТЬ: 431.925 [кВт] СУММА: 2159.625 [руб]
[175] ДАТА: 2017-10-09 МОЩНОСТЬ: 431.577 [кВт] СУММА: 2157.885 [руб]
[176] ДАТА: 2017-10-08 МОЩНОСТЬ: 431.233 [кВт] СУММА: 2156.165 [руб]
[177] ДАТА: 2017-10-07 МОЩНОСТЬ: 430.892 [кВт] СУММА: 2154.46 [руб]
[178] ДАТА: 2017-10-04 МОЩНОСТЬ: 429.862 [кВт] СУММА: 2149.31 [руб]
[179] ДАТА: 2017-10-03 МОЩНОСТЬ: 429.518 [кВт] СУММА: 2147.59 [руб]
[180] ДАТА: 2017-10-02 МОЩНОСТЬ: 429.177 [кВт] СУММА: 2145.885 [руб]
[181] ДАТА: 2017-09-28 МОЩНОСТЬ: 408.753 [кВт] СУММА: 2043.765 [руб]
[182] ДАТА: 2017-09-27 МОЩНОСТЬ: 408.475 [кВт] СУММА: 2042.375 [руб]
[183] ДАТА: 2017-09-26 МОЩНОСТЬ: 408.217 [кВт] СУММА: 2041.085 [руб]
[184] ДАТА: 2017-09-25 МОЩНОСТЬ: 407.962 [кВт] СУММА: 2039.81 [руб]
[185] ДАТА: 2017-09-24 МОЩНОСТЬ: 400.515 [кВт] СУММА: 2002.575 [руб]
[186] ДАТА: 2017-09-23 МОЩНОСТЬ: 391.103 [кВт] СУММА: 1955.515 [руб]
[187] ДАТА: 2017-09-22 МОЩНОСТЬ: 386.862 [кВт] СУММА: 1934.31 [руб]
[188] ДАТА: 2017-09-21 МОЩНОСТЬ: 386.667 [кВт] СУММА: 1933.335 [руб]
[189] ДАТА: 2017-09-19 МОЩНОСТЬ: 386.166 [кВт] СУММА: 1930.83 [руб]
[190] ДАТА: 2017-09-18 МОЩНОСТЬ: 385.906 [кВт] СУММА: 1929.53 [руб]
[191] ДАТА: 2017-09-17 МОЩНОСТЬ: 380.423 [кВт] СУММА: 1902.115 [руб]
[192] ДАТА: 2017-09-13 МОЩНОСТЬ: 369.734 [кВт] СУММА: 1848.67 [руб]
[193] ДАТА: 2017-09-12 МОЩНОСТЬ: 369.472 [кВт] СУММА: 1847.36 [руб]
[194] ДАТА: 2017-09-11 МОЩНОСТЬ: 369.211 [кВт] СУММА: 1846.055 [руб]
[195] ДАТА: 2017-09-10 МОЩНОСТЬ: 368.955 [кВт] СУММА: 1844.775 [руб]
[196] ДАТА: 2017-09-09 МОЩНОСТЬ: 368.701 [кВт] СУММА: 1843.505 [руб]
[197] ДАТА: 2017-09-06 МОЩНОСТЬ: 367.925 [кВт] СУММА: 1839.625 [руб]
[198] ДАТА: 2017-09-05 МОЩНОСТЬ: 367.675 [кВт] СУММА: 1838.375 [руб]
[199] ДАТА: 2017-09-04 МОЩНОСТЬ: 367.422 [кВт] СУММА: 1837.11 [руб]
[200] ДАТА: 2017-09-03 МОЩНОСТЬ: 364.982 [кВт] СУММА: 1824.91 [руб]
[201] ДАТА: 2017-09-02 МОЩНОСТЬ: 357.973 [кВт] СУММА: 1789.865 [руб]
[202] ДАТА: 2017-09-01 МОЩНОСТЬ: 350.239 [кВт] СУММА: 1751.195 [руб]
[203] ДАТА: 2017-08-31 МОЩНОСТЬ: 348.088 [кВт] СУММА: 1740.44 [руб]
[204] ДАТА: 2017-08-30 МОЩНОСТЬ: 348.088 [кВт] СУММА: 1740.44 [руб]
[205] ДАТА: 2017-08-29 МОЩНОСТЬ: 348.088 [кВт] СУММА: 1740.44 [руб]
[206] ДАТА: 2017-08-28 МОЩНОСТЬ: 348.088 [кВт] СУММА: 1740.44 [руб]
[207] ДАТА: 2017-08-23 МОЩНОСТЬ: 321.699 [кВт] СУММА: 1608.495 [руб]
[208] ДАТА: 2017-08-22 МОЩНОСТЬ: 321.699 [кВт] СУММА: 1608.495 [руб]
[209] ДАТА: 2017-08-21 МОЩНОСТЬ: 321.699 [кВт] СУММА: 1608.495 [руб]
[210] ДАТА: 2017-08-20 МОЩНОСТЬ: 319.777 [кВт] СУММА: 1598.885 [руб]
[211] ДАТА: 2017-08-19 МОЩНОСТЬ: 316.299 [кВт] СУММА: 1581.495 [руб]
[212] ДАТА: 2017-08-18 МОЩНОСТЬ: 314.375 [кВт] СУММА: 1571.875 [руб]
[213] ДАТА: 2017-08-14 МОЩНОСТЬ: 314.375 [кВт] СУММА: 1571.875 [руб]
[214] ДАТА: 2017-08-13 МОЩНОСТЬ: 312.804 [кВт] СУММА: 1564.02 [руб]
[215] ДАТА: 2017-08-12 МОЩНОСТЬ: 308.997 [кВт] СУММА: 1544.985 [руб]
[216] ДАТА: 2017-08-11 МОЩНОСТЬ: 305.093 [кВт] СУММА: 1525.465 [руб]
[217] ДАТА: 2017-08-06 МОЩНОСТЬ: 284.147 [кВт] СУММА: 1420.735 [руб]
[218] ДАТА: 2017-08-05 МОЩНОСТЬ: 282.199 [кВт] СУММА: 1410.995 [руб]
[219] ДАТА: 2017-08-04 МОЩНОСТЬ: 279.428 [кВт] СУММА: 1397.14 [руб]
[220] ДАТА: 2017-08-03 МОЩНОСТЬ: 277.941 [кВт] СУММА: 1389.705 [руб]
[221] ДАТА: 2017-08-02 МОЩНОСТЬ: 277.941 [кВт] СУММА: 1389.705 [руб]
[222] ДАТА: 2017-08-01 МОЩНОСТЬ: 277.941 [кВт] СУММА: 1389.705 [руб]
[223] ДАТА: 2017-07-31 МОЩНОСТЬ: 277.941 [кВт] СУММА: 1389.705 [руб]
[224] ДАТА: 2017-07-30 МОЩНОСТЬ: 276.451 [кВт] СУММА: 1382.255 [руб]
[225] ДАТА: 2017-07-27 МОЩНОСТЬ: 268.544 [кВт] СУММА: 1342.72 [руб]
[226] ДАТА: 2017-07-26 МОЩНОСТЬ: 268.544 [кВт] СУММА: 1342.72 [руб]
[227] ДАТА: 2017-07-25 МОЩНОСТЬ: 268.544 [кВт] СУММА: 1342.72 [руб]
[228] ДАТА: 2017-07-24 МОЩНОСТЬ: 268.544 [кВт] СУММА: 1342.72 [руб]
[229] ДАТА: 2017-07-23 МОЩНОСТЬ: 267.139 [кВт] СУММА: 1335.695 [руб]
[230] ДАТА: 2017-07-22 МОЩНОСТЬ: 264.784 [кВт] СУММА: 1323.92 [руб]
[231] ДАТА: 2017-07-21 МОЩНОСТЬ: 257.602 [кВт] СУММА: 1288.01 [руб]
[232] ДАТА: 2017-07-18 МОЩНОСТЬ: 257.555 [кВт] СУММА: 1287.775 [руб]
[233] ДАТА: 2017-07-17 МОЩНОСТЬ: 257.555 [кВт] СУММА: 1287.775 [руб]
[234] ДАТА: 2017-07-16 МОЩНОСТЬ: 255.904 [кВт] СУММА: 1279.52 [руб]
[235] ДАТА: 2017-07-15 МОЩНОСТЬ: 252.76 [кВт] СУММА: 1263.8 [руб]
[236] ДАТА: 2017-07-10 МОЩНОСТЬ: 251.725 [кВт] СУММА: 1258.625 [руб]
[237] ДАТА: 2017-07-09 МОЩНОСТЬ: 246.351 [кВт] СУММА: 1231.755 [руб]
[238] ДАТА: 2017-07-08 МОЩНОСТЬ: 237.172 [кВт] СУММА: 1185.86 [руб]
[239] ДАТА: 2017-07-07 МОЩНОСТЬ: 234.337 [кВт] СУММА: 1171.685 [руб]
[240] ДАТА: 2017-07-02 МОЩНОСТЬ: 232.736 [кВт] СУММА: 1163.68 [руб]
[241] ДАТА: 2017-07-01 МОЩНОСТЬ: 230.596 [кВт] СУММА: 1152.98 [руб]
[242] ДАТА: 2017-06-30 МОЩНОСТЬ: 229.945 [кВт] СУММА: 1149.725 [руб]
[243] ДАТА: 2017-06-29 МОЩНОСТЬ: 229.945 [кВт] СУММА: 1149.725 [руб]
[244] ДАТА: 2017-06-28 МОЩНОСТЬ: 229.945 [кВт] СУММА: 1149.725 [руб]
[245] ДАТА: 2017-06-27 МОЩНОСТЬ: 229.945 [кВт] СУММА: 1149.725 [руб]
[246] ДАТА: 2017-06-26 МОЩНОСТЬ: 229.945 [кВт] СУММА: 1149.725 [руб]
[247] ДАТА: 2017-06-25 МОЩНОСТЬ: 228.593 [кВт] СУММА: 1142.965 [руб]
[248] ДАТА: 2017-06-24 МОЩНОСТЬ: 226.251 [кВт] СУММА: 1131.255 [руб]
[249] ДАТА: 2017-06-23 МОЩНОСТЬ: 225.125 [кВт] СУММА: 1125.625 [руб]
[250] ДАТА: 2017-06-22 МОЩНОСТЬ: 225.125 [кВт] СУММА: 1125.625 [руб]
[251] ДАТА: 2017-06-21 МОЩНОСТЬ: 225.125 [кВт] СУММА: 1125.625 [руб]
[252] ДАТА: 2017-06-20 МОЩНОСТЬ: 225.125 [кВт] СУММА: 1125.625 [руб]
[253] ДАТА: 2017-06-19 МОЩНОСТЬ: 225.125 [кВт] СУММА: 1125.625 [руб]
[254] ДАТА: 2017-06-18 МОЩНОСТЬ: 224.523 [кВт] СУММА: 1122.615 [руб]
[255] ДАТА: 2017-06-17 МОЩНОСТЬ: 222.168 [кВт] СУММА: 1110.84 [руб]
[256] ДАТА: 2017-06-16 МОЩНОСТЬ: 220.895 [кВт] СУММА: 1104.475 [руб]
[257] ДАТА: 2017-06-15 МОЩНОСТЬ: 220.895 [кВт] СУММА: 1104.475 [руб]
[258] ДАТА: 2017-06-14 МОЩНОСТЬ: 220.895 [кВт] СУММА: 1104.475 [руб]
[259] ДАТА: 2017-06-13 МОЩНОСТЬ: 220.895 [кВт] СУММА: 1104.475 [руб]
[260] ДАТА: 2017-06-12 МОЩНОСТЬ: 220.061 [кВт] СУММА: 1100.305 [руб]
[261] ДАТА: 2017-06-11 МОЩНОСТЬ: 218.555 [кВт] СУММА: 1092.775 [руб]
[262] ДАТА: 2017-06-10 МОЩНОСТЬ: 215.934 [кВт] СУММА: 1079.67 [руб]
[263] ДАТА: 2017-06-09 МОЩНОСТЬ: 214.605 [кВт] СУММА: 1073.025 [руб]
[264] ДАТА: 2017-06-08 МОЩНОСТЬ: 214.605 [кВт] СУММА: 1073.025 [руб]
[265] ДАТА: 2017-06-07 МОЩНОСТЬ: 214.605 [кВт] СУММА: 1073.025 [руб]
[266] ДАТА: 2017-06-06 МОЩНОСТЬ: 214.605 [кВт] СУММА: 1073.025 [руб]
[267] ДАТА: 2017-06-05 МОЩНОСТЬ: 214.605 [кВт] СУММА: 1073.025 [руб]
[268] ДАТА: 2017-06-04 МОЩНОСТЬ: 214.605 [кВт] СУММА: 1073.025 [руб]
[269] ДАТА: 2017-06-03 МОЩНОСТЬ: 214.605 [кВт] СУММА: 1073.025 [руб]
[270] ДАТА: 2017-06-02 МОЩНОСТЬ: 214.605 [кВт] СУММА: 1073.025 [руб]
[271] ДАТА: 2017-05-30 МОЩНОСТЬ: 214.605 [кВт] СУММА: 1073.025 [руб]
[272] ДАТА: 2017-05-29 МОЩНОСТЬ: 214.605 [кВт] СУММА: 1073.025 [руб]
[273] ДАТА: 2017-05-28 МОЩНОСТЬ: 212.392 [кВт] СУММА: 1061.96 [руб]
[274] ДАТА: 2017-05-27 МОЩНОСТЬ: 210.171 [кВт] СУММА: 1050.855 [руб]
[275] ДАТА: 2017-05-26 МОЩНОСТЬ: 208.478 [кВт] СУММА: 1042.39 [руб]
[276] ДАТА: 2017-05-23 МОЩНОСТЬ: 199.154 [кВт] СУММА: 995.77 [руб]
[277] ДАТА: 2017-05-22 МОЩНОСТЬ: 194.09 [кВт] СУММА: 970.45 [руб]
[278] ДАТА: 2017-05-21 МОЩНОСТЬ: 190.84 [кВт] СУММА: 954.2 [руб]
[279] ДАТА: 2017-05-20 МОЩНОСТЬ: 190.84 [кВт] СУММА: 954.2 [руб]
[280] ДАТА: 2017-05-16 МОЩНОСТЬ: 190.84 [кВт] СУММА: 954.2 [руб]
[281] ДАТА: 2017-05-15 МОЩНОСТЬ: 190.84 [кВт] СУММА: 954.2 [руб]
[282] ДАТА: 2017-05-13 МОЩНОСТЬ: 190.84 [кВт] СУММА: 954.2 [руб]
[283] ДАТА: 2017-05-10 МОЩНОСТЬ: 190.84 [кВт] СУММА: 954.2 [руб]
[284] ДАТА: 2017-05-09 МОЩНОСТЬ: 190.84 [кВт] СУММА: 954.2 [руб]
[285] ДАТА: 2017-05-07 МОЩНОСТЬ: 174.875 [кВт] СУММА: 874.375 [руб]
[286] ДАТА: 2017-05-04 МОЩНОСТЬ: 166.222 [кВт] СУММА: 831.11 [руб]
[287] ДАТА: 2017-05-03 МОЩНОСТЬ: 162.567 [кВт] СУММА: 812.835 [руб]
[288] ДАТА: 2017-05-02 МОЩНОСТЬ: 161.028 [кВт] СУММА: 805.14 [руб]
[289] ДАТА: 2017-05-01 МОЩНОСТЬ: 159.721 [кВт] СУММА: 798.605 [руб]
[290] ДАТА: 2017-04-30 МОЩНОСТЬ: 159.127 [кВт] СУММА: 795.635 [руб]
[291] ДАТА: 2017-04-25 МОЩНОСТЬ: 159.127 [кВт] СУММА: 795.635 [руб]
[292] ДАТА: 2017-04-24 МОЩНОСТЬ: 159.127 [кВт] СУММА: 795.635 [руб]
[293] ДАТА: 2017-04-23 МОЩНОСТЬ: 159.127 [кВт] СУММА: 795.635 [руб]
[294] ДАТА: 2017-04-22 МОЩНОСТЬ: 159.127 [кВт] СУММА: 795.635 [руб]
[295] ДАТА: 2017-04-18 МОЩНОСТЬ: 159.127 [кВт] СУММА: 795.635 [руб]
[296] ДАТА: 2017-04-17 МОЩНОСТЬ: 159.127 [кВт] СУММА: 795.635 [руб]
[297] ДАТА: 2017-04-16 МОЩНОСТЬ: 159.127 [кВт] СУММА: 795.635 [руб]
[298] ДАТА: 2017-04-15 МОЩНОСТЬ: 159.127 [кВт] СУММА: 795.635 [руб]
[299] ДАТА: 2017-04-11 МОЩНОСТЬ: 159.127 [кВт] СУММА: 795.635 [руб]
[300] ДАТА: 2017-04-10 МОЩНОСТЬ: 159.127 [кВт] СУММА: 795.635 [руб]
[301] ДАТА: 2017-04-09 МОЩНОСТЬ: 159.127 [кВт] СУММА: 795.635 [руб]
[302] ДАТА: 2017-04-08 МОЩНОСТЬ: 159.127 [кВт] СУММА: 795.635 [руб]
[303] ДАТА: 2017-04-07 МОЩНОСТЬ: 159.127 [кВт] СУММА: 795.635 [руб]
[304] ДАТА: 2017-04-06 МОЩНОСТЬ: 159.127 [кВт] СУММА: 795.635 [руб]
[305] ДАТА: 2017-04-05 МОЩНОСТЬ: 159.127 [кВт] СУММА: 795.635 [руб]
[306] ДАТА: 2017-04-04 МОЩНОСТЬ: 159.127 [кВт] СУММА: 795.635 [руб]
[307] ДАТА: 2017-04-03 МОЩНОСТЬ: 159.127 [кВт] СУММА: 795.635 [руб]
[308] ДАТА: 2017-04-02 МОЩНОСТЬ: 159.127 [кВт] СУММА: 795.635 [руб]
[309] ДАТА: 2017-04-01 МОЩНОСТЬ: 159.127 [кВт] СУММА: 795.635 [руб]
[310] ДАТА: 2017-03-31 МОЩНОСТЬ: 159.127 [кВт] СУММА: 795.635 [руб]
[311] ДАТА: 2017-03-30 МОЩНОСТЬ: 159.127 [кВт] СУММА: 795.635 [руб]
[312] ДАТА: 2017-03-29 МОЩНОСТЬ: 159.127 [кВт] СУММА: 795.635 [руб]
[313] ДАТА: 2017-03-25 МОЩНОСТЬ: 159.127 [кВт] СУММА: 795.635 [руб]
[314] ДАТА: 2017-03-24 МОЩНОСТЬ: 159.127 [кВт] СУММА: 795.635 [руб]
[315] ДАТА: 2017-03-23 МОЩНОСТЬ: 159.127 [кВт] СУММА: 795.635 [руб]
[316] ДАТА: 2017-03-22 МОЩНОСТЬ: 159.127 [кВт] СУММА: 795.635 [руб]
[317] ДАТА: 2017-03-21 МОЩНОСТЬ: 159.127 [кВт] СУММА: 795.635 [руб]
[318] ДАТА: 2017-03-20 МОЩНОСТЬ: 159.127 [кВт] СУММА: 795.635 [руб]
[319] ДАТА: 2017-03-19 МОЩНОСТЬ: 159.127 [кВт] СУММА: 795.635 [руб]
[320] ДАТА: 2017-03-18 МОЩНОСТЬ: 159.127 [кВт] СУММА: 795.635 [руб]
[321] ДАТА: 2017-03-14 МОЩНОСТЬ: 159.127 [кВт] СУММА: 795.635 [руб]
[322] ДАТА: 2017-03-13 МОЩНОСТЬ: 159.127 [кВт] СУММА: 795.635 [руб]
[323] ДАТА: 2017-03-12 МОЩНОСТЬ: 159.127 [кВт] СУММА: 795.635 [руб]
[324] ДАТА: 2017-03-11 МОЩНОСТЬ: 159.1 [кВт] СУММА: 795.5 [руб]
[325] ДАТА: 2017-03-10 МОЩНОСТЬ: 159.1 [кВт] СУММА: 795.5 [руб]
[326] ДАТА: 2017-03-06 МОЩНОСТЬ: 159.1 [кВт] СУММА: 795.5 [руб]
[327] ДАТА: 2017-03-05 МОЩНОСТЬ: 159.1 [кВт] СУММА: 795.5 [руб]
[328] ДАТА: 2017-03-04 МОЩНОСТЬ: 159.1 [кВт] СУММА: 795.5 [руб]
[329] ДАТА: 2017-03-03 МОЩНОСТЬ: 159.1 [кВт] СУММА: 795.5 [руб]
[330] ДАТА: 2017-03-02 МОЩНОСТЬ: 159.1 [кВт] СУММА: 795.5 [руб]
[331] ДАТА: 2017-03-01 МОЩНОСТЬ: 159.1 [кВт] СУММА: 795.5 [руб]
[332] ДАТА: 2017-02-28 МОЩНОСТЬ: 159.1 [кВт] СУММА: 795.5 [руб]
[333] ДАТА: 2017-02-25 МОЩНОСТЬ: 159.1 [кВт] СУММА: 795.5 [руб]
[334] ДАТА: 2017-02-24 МОЩНОСТЬ: 159.1 [кВт] СУММА: 795.5 [руб]
[335] ДАТА: 2017-02-23 МОЩНОСТЬ: 159.1 [кВт] СУММА: 795.5 [руб]
[336] ДАТА: 2017-02-20 МОЩНОСТЬ: 159.1 [кВт] СУММА: 795.5 [руб]
[337] ДАТА: 2017-02-19 МОЩНОСТЬ: 159.1 [кВт] СУММА: 795.5 [руб]
[338] ДАТА: 2017-02-18 МОЩНОСТЬ: 159.1 [кВт] СУММА: 795.5 [руб]
[339] ДАТА: 2017-02-17 МОЩНОСТЬ: 159.1 [кВт] СУММА: 795.5 [руб]
[340] ДАТА: 2017-02-16 МОЩНОСТЬ: 159.1 [кВт] СУММА: 795.5 [руб]
[341] ДАТА: 2017-02-15 МОЩНОСТЬ: 159.1 [кВт] СУММА: 795.5 [руб]
[342] ДАТА: 2017-02-14 МОЩНОСТЬ: 159.1 [кВт] СУММА: 795.5 [руб]
[343] ДАТА: 2017-02-11 МОЩНОСТЬ: 159.1 [кВт] СУММА: 795.5 [руб]
[344] ДАТА: 2017-02-10 МОЩНОСТЬ: 159.1 [кВт] СУММА: 795.5 [руб]
[345] ДАТА: 2017-02-09 МОЩНОСТЬ: 159.1 [кВт] СУММА: 795.5 [руб]
[346] ДАТА: 2017-02-08 МОЩНОСТЬ: 159.1 [кВт] СУММА: 795.5 [руб]
[347] ДАТА: 2017-02-07 МОЩНОСТЬ: 159.1 [кВт] СУММА: 795.5 [руб]
[348] ДАТА: 2017-02-06 МОЩНОСТЬ: 159.1 [кВт] СУММА: 795.5 [руб]
[349] ДАТА: 2017-02-05 МОЩНОСТЬ: 159.1 [кВт] СУММА: 795.5 [руб]
[350] ДАТА: 2017-02-04 МОЩНОСТЬ: 159.1 [кВт] СУММА: 795.5 [руб]
[351] ДАТА: 2017-02-03 МОЩНОСТЬ: 159.1 [кВт] СУММА: 795.5 [руб]
[352] ДАТА: 2017-02-02 МОЩНОСТЬ: 159.1 [кВт] СУММА: 795.5 [руб]
[353] ДАТА: 2017-02-01 МОЩНОСТЬ: 159.1 [кВт] СУММА: 795.5 [руб]
[354] ДАТА: 2017-01-31 МОЩНОСТЬ: 159.1 [кВт] СУММА: 795.5 [руб]
[355] ДАТА: 2017-01-30 МОЩНОСТЬ: 159.1 [кВт] СУММА: 795.5 [руб]
[356] ДАТА: 2017-01-29 МОЩНОСТЬ: 159.1 [кВт] СУММА: 795.5 [руб]
[357] ДАТА: 2017-01-28 МОЩНОСТЬ: 159.1 [кВт] СУММА: 795.5 [руб]
[358] ДАТА: 2017-01-27 МОЩНОСТЬ: 159.1 [кВт] СУММА: 795.5 [руб]
[359] ДАТА: 2017-01-24 МОЩНОСТЬ: 159.1 [кВт] СУММА: 795.5 [руб]
[360] ДАТА: 2017-01-23 МОЩНОСТЬ: 159.1 [кВт] СУММА: 795.5 [руб]
[361] ДАТА: 2017-01-22 МОЩНОСТЬ: 159.1 [кВт] СУММА: 795.5 [руб]
[362] ДАТА: 2017-01-21 МОЩНОСТЬ: 159.1 [кВт] СУММА: 795.5 [руб]
[363] ДАТА: 2017-01-20 МОЩНОСТЬ: 159.1 [кВт] СУММА: 795.5 [руб]
[364] ДАТА: 2017-01-19 МОЩНОСТЬ: 159.1 [кВт] СУММА: 795.5 [руб]
[365] ДАТА: 2017-01-18 МОЩНОСТЬ: 159.1 [кВт] СУММА: 795.5 [руб]
[366] ДАТА: 2017-01-17 МОЩНОСТЬ: 159.1 [кВт] СУММА: 795.5 [руб]
[367] ДАТА: 2017-01-16 МОЩНОСТЬ: 159.1 [кВт] СУММА: 795.5 [руб]
[368] ДАТА: 2017-01-15 МОЩНОСТЬ: 159.1 [кВт] СУММА: 795.5 [руб]
[369] ДАТА: 2017-01-14 МОЩНОСТЬ: 159.1 [кВт] СУММА: 795.5 [руб]
[370] ДАТА: 2017-01-13 МОЩНОСТЬ: 159.1 [кВт] СУММА: 795.5 [руб]
[371] ДАТА: 2017-01-12 МОЩНОСТЬ: 159.1 [кВт] СУММА: 795.5 [руб]
[372] ДАТА: 2017-01-11 МОЩНОСТЬ: 159.1 [кВт] СУММА: 795.5 [руб]
[373] ДАТА: 2017-01-10 МОЩНОСТЬ: 159.1 [кВт] СУММА: 795.5 [руб]
[374] ДАТА: 2017-01-09 МОЩНОСТЬ: 159.1 [кВт] СУММА: 795.5 [руб]
[375] ДАТА: 2017-01-08 МОЩНОСТЬ: 159.1 [кВт] СУММА: 795.5 [руб]
[376] ДАТА: 2017-01-07 МОЩНОСТЬ: 159.1 [кВт] СУММА: 795.5 [руб]
[377] ДАТА: 2017-01-06 МОЩНОСТЬ: 159.1 [кВт] СУММА: 795.5 [руб]
[378] ДАТА: 2017-01-05 МОЩНОСТЬ: 159.1 [кВт] СУММА: 795.5 [руб]
[379] ДАТА: 2017-01-04 МОЩНОСТЬ: 159.1 [кВт] СУММА: 795.5 [руб]
[380] ДАТА: 2017-01-03 МОЩНОСТЬ: 159.1 [кВт] СУММА: 795.5 [руб]
[381] ДАТА: 2017-01-02 МОЩНОСТЬ: 159.1 [кВт] СУММА: 795.5 [руб]
[382] ДАТА: 2017-01-01 МОЩНОСТЬ: 159.1 [кВт] СУММА: 795.5 [руб]
[383] ДАТА: 2016-12-31 МОЩНОСТЬ: 159.1 [кВт] СУММА: 795.5 [руб]
[384] ДАТА: 2016-12-30 МОЩНОСТЬ: 159.1 [кВт] СУММА: 795.5 [руб]
[385] ДАТА: 2016-12-29 МОЩНОСТЬ: 159.1 [кВт] СУММА: 795.5 [руб]
[386] ДАТА: 2016-12-28 МОЩНОСТЬ: 159.1 [кВт] СУММА: 795.5 [руб]
[387] ДАТА: 2016-12-27 МОЩНОСТЬ: 159.1 [кВт] СУММА: 795.5 [руб]
[388] ДАТА: 2016-12-26 МОЩНОСТЬ: 159.1 [кВт] СУММА: 795.5 [руб]
[389] ДАТА: 2016-12-25 МОЩНОСТЬ: 159.1 [кВт] СУММА: 795.5 [руб]
[390] ДАТА: 2016-12-24 МОЩНОСТЬ: 159.1 [кВт] СУММА: 795.5 [руб]
[391] ДАТА: 2016-12-23 МОЩНОСТЬ: 159.1 [кВт] СУММА: 795.5 [руб]
[392] ДАТА: 2016-12-20 МОЩНОСТЬ: 159.1 [кВт] СУММА: 795.5 [руб]
[393] ДАТА: 2016-12-19 МОЩНОСТЬ: 159.1 [кВт] СУММА: 795.5 [руб]
[394] ДАТА: 2016-12-18 МОЩНОСТЬ: 159.1 [кВт] СУММА: 795.5 [руб]
[395] ДАТА: 2016-12-17 МОЩНОСТЬ: 159.1 [кВт] СУММА: 795.5 [руб]
[396] ДАТА: 2016-12-16 МОЩНОСТЬ: 159.1 [кВт] СУММА: 795.5 [руб]
[397] ДАТА: 2016-12-15 МОЩНОСТЬ: 159.1 [кВт] СУММА: 795.5 [руб]
[398] ДАТА: 2016-12-14 МОЩНОСТЬ: 159.1 [кВт] СУММА: 795.5 [руб]
[399] ДАТА: 2016-12-13 МОЩНОСТЬ: 159.1 [кВт] СУММА: 795.5 [руб]
[400] ДАТА: 2016-12-12 МОЩНОСТЬ: 159.1 [кВт] СУММА: 795.5 [руб]
[401] ДАТА: 2016-12-11 МОЩНОСТЬ: 159.1 [кВт] СУММА: 795.5 [руб]
[402] ДАТА: 2016-12-09 МОЩНОСТЬ: 159.1 [кВт] СУММА: 795.5 [руб]
[403] ДАТА: 2016-12-06 МОЩНОСТЬ: 159.1 [кВт] СУММА: 795.5 [руб]
[404] ДАТА: 2016-12-05 МОЩНОСТЬ: 159.1 [кВт] СУММА: 795.5 [руб]
[405] ДАТА: 2016-12-04 МОЩНОСТЬ: 159.1 [кВт] СУММА: 795.5 [руб]
[406] ДАТА: 2016-12-03 МОЩНОСТЬ: 159.1 [кВт] СУММА: 795.5 [руб]
[407] ДАТА: 2016-12-02 МОЩНОСТЬ: 159.1 [кВт] СУММА: 795.5 [руб]
[408] ДАТА: 2016-12-01 МОЩНОСТЬ: 159.1 [кВт] СУММА: 795.5 [руб]
[409] ДАТА: 2016-11-30 МОЩНОСТЬ: 159.1 [кВт] СУММА: 795.5 [руб]
[410] ДАТА: 2016-11-26 МОЩНОСТЬ: 159.1 [кВт] СУММА: 795.5 [руб]
[411] ДАТА: 2016-11-25 МОЩНОСТЬ: 159.1 [кВт] СУММА: 795.5 [руб]
[412] ДАТА: 2016-11-24 МОЩНОСТЬ: 159.1 [кВт] СУММА: 795.5 [руб]
[413] ДАТА: 2016-11-21 МОЩНОСТЬ: 159.1 [кВт] СУММА: 795.5 [руб]
[414] ДАТА: 2016-11-20 МОЩНОСТЬ: 159.1 [кВт] СУММА: 795.5 [руб]
[415] ДАТА: 2016-11-19 МОЩНОСТЬ: 159.1 [кВт] СУММА: 795.5 [руб]
[416] ДАТА: 2016-11-18 МОЩНОСТЬ: 159.1 [кВт] СУММА: 795.5 [руб]
[417] ДАТА: 2016-11-17 МОЩНОСТЬ: 159.1 [кВт] СУММА: 795.5 [руб]
[418] ДАТА: 2016-11-16 МОЩНОСТЬ: 159.1 [кВт] СУММА: 795.5 [руб]
[419] ДАТА: 2016-11-15 МОЩНОСТЬ: 159.1 [кВт] СУММА: 795.5 [руб]
[420] ДАТА: 2016-11-12 МОЩНОСТЬ: 159.1 [кВт] СУММА: 795.5 [руб]
[421] ДАТА: 2016-11-11 МОЩНОСТЬ: 159.1 [кВт] СУММА: 795.5 [руб]
[422] ДАТА: 2016-11-08 МОЩНОСТЬ: 159.1 [кВт] СУММА: 795.5 [руб]
[423] ДАТА: 2016-11-07 МОЩНОСТЬ: 159.1 [кВт] СУММА: 795.5 [руб]
[424] ДАТА: 2016-11-06 МОЩНОСТЬ: 159.1 [кВт] СУММА: 795.5 [руб]
[425] ДАТА: 2016-11-05 МОЩНОСТЬ: 159.1 [кВт] СУММА: 795.5 [руб]
[426] ДАТА: 2016-11-04 МОЩНОСТЬ: 159.1 [кВт] СУММА: 795.5 [руб]
[427] ДАТА: 2016-11-03 МОЩНОСТЬ: 159.1 [кВт] СУММА: 795.5 [руб]
[428] ДАТА: 2016-11-02 МОЩНОСТЬ: 159.1 [кВт] СУММА: 795.5 [руб]
[429] ДАТА: 2016-11-01 МОЩНОСТЬ: 159.1 [кВт] СУММА: 795.5 [руб]
[430] ДАТА: 2016-10-29 МОЩНОСТЬ: 159.1 [кВт] СУММА: 795.5 [руб]
[431] ДАТА: 2016-10-28 МОЩНОСТЬ: 159.1 [кВт] СУММА: 795.5 [руб]
[432] ДАТА: 2016-10-27 МОЩНОСТЬ: 159.1 [кВт] СУММА: 795.5 [руб]
[433] ДАТА: 2016-10-24 МОЩНОСТЬ: 159.1 [кВт] СУММА: 795.5 [руб]
[434] ДАТА: 2016-10-23 МОЩНОСТЬ: 159.1 [кВт] СУММА: 795.5 [руб]
[435] ДАТА: 2016-10-22 МОЩНОСТЬ: 159.1 [кВт] СУММА: 795.5 [руб]
[436] ДАТА: 2016-10-21 МОЩНОСТЬ: 159.1 [кВт] СУММА: 795.5 [руб]
[437] ДАТА: 2016-10-17 МОЩНОСТЬ: 159.1 [кВт] СУММА: 795.5 [руб]
[438] ДАТА: 2016-10-16 МОЩНОСТЬ: 159.1 [кВт] СУММА: 795.5 [руб]
[439] ДАТА: 2016-10-15 МОЩНОСТЬ: 159.1 [кВт] СУММА: 795.5 [руб]
[440] ДАТА: 2016-10-14 МОЩНОСТЬ: 159.1 [кВт] СУММА: 795.5 [руб]
[441] ДАТА: 2016-10-11 МОЩНОСТЬ: 159.1 [кВт] СУММА: 795.5 [руб]
[442] ДАТА: 2016-10-10 МОЩНОСТЬ: 159.1 [кВт] СУММА: 795.5 [руб]
[443] ДАТА: 2016-10-09 МОЩНОСТЬ: 149.533 [кВт] СУММА: 747.665 [руб]
[444] ДАТА: 2016-10-08 МОЩНОСТЬ: 145.898 [кВт] СУММА: 729.49 [руб]
[445] ДАТА: 2016-10-07 МОЩНОСТЬ: 145.898 [кВт] СУММА: 729.49 [руб]
[446] ДАТА: 2016-10-06 МОЩНОСТЬ: 145.898 [кВт] СУММА: 729.49 [руб]
[447] ДАТА: 2016-10-03 МОЩНОСТЬ: 145.898 [кВт] СУММА: 729.49 [руб]
[448] ДАТА: 2016-10-02 МОЩНОСТЬ: 145.898 [кВт] СУММА: 729.49 [руб]
[449] ДАТА: 2016-10-01 МОЩНОСТЬ: 145.898 [кВт] СУММА: 729.49 [руб]
[450] ДАТА: 2016-09-30 МОЩНОСТЬ: 145.898 [кВт] СУММА: 729.49 [руб]
[451] ДАТА: 2016-09-27 МОЩНОСТЬ: 145.898 [кВт] СУММА: 729.49 [руб]
[452] ДАТА: 2016-09-26 МОЩНОСТЬ: 145.898 [кВт] СУММА: 729.49 [руб]
[453] ДАТА: 2016-09-25 МОЩНОСТЬ: 140.574 [кВт] СУММА: 702.87 [руб]
[454] ДАТА: 2016-09-24 МОЩНОСТЬ: 128.59 [кВт] СУММА: 642.95 [руб]
[455] ДАТА: 2016-09-23 МОЩНОСТЬ: 124.632 [кВт] СУММА: 623.16 [руб]
[456] ДАТА: 2016-09-22 МОЩНОСТЬ: 124.632 [кВт] СУММА: 623.16 [руб]
[457] ДАТА: 2016-09-19 МОЩНОСТЬ: 124.632 [кВт] СУММА: 623.16 [руб]
[458] ДАТА: 2016-09-18 МОЩНОСТЬ: 116.686 [кВт] СУММА: 583.43 [руб]
[459] ДАТА: 2016-09-17 МОЩНОСТЬ: 106.981 [кВт] СУММА: 534.905 [руб]
[460] ДАТА: 2016-09-14 МОЩНОСТЬ: 106.981 [кВт] СУММА: 534.905 [руб]
[461] ДАТА: 2016-09-13 МОЩНОСТЬ: 106.981 [кВт] СУММА: 534.905 [руб]
[462] ДАТА: 2016-09-12 МОЩНОСТЬ: 106.981 [кВт] СУММА: 534.905 [руб]
[463] ДАТА: 2016-09-11 МОЩНОСТЬ: 106.981 [кВт] СУММА: 534.905 [руб]
[464] ДАТА: 2016-09-10 МОЩНОСТЬ: 106.981 [кВт] СУММА: 534.905 [руб]
[465] ДАТА: 2016-09-07 МОЩНОСТЬ: 106.981 [кВт] СУММА: 534.905 [руб]
[466] ДАТА: 2016-09-06 МОЩНОСТЬ: 106.981 [кВт] СУММА: 534.905 [руб]
[467] ДАТА: 2016-09-05 МОЩНОСТЬ: 106.981 [кВт] СУММА: 534.905 [руб]
[468] ДАТА: 2016-09-04 МОЩНОСТЬ: 103.163 [кВт] СУММА: 515.815 [руб]
[469] ДАТА: 2016-09-03 МОЩНОСТЬ: 96.835 [кВт] СУММА: 484.175 [руб]
[470] ДАТА: 2016-09-02 МОЩНОСТЬ: 89.301 [кВт] СУММА: 446.505 [руб]
[471] ДАТА: 2016-09-01 МОЩНОСТЬ: 86.623 [кВт] СУММА: 433.115 [руб]
[472] ДАТА: 2016-08-31 МОЩНОСТЬ: 85.067 [кВт] СУММА: 425.335 [руб]
[473] ДАТА: 2016-08-30 МОЩНОСТЬ: 83.071 [кВт] СУММА: 415.355 [руб]
[474] ДАТА: 2016-08-29 МОЩНОСТЬ: 82.342 [кВт] СУММА: 411.71 [руб]
[475] ДАТА: 2016-08-28 МОЩНОСТЬ: 81.079 [кВт] СУММА: 405.395 [руб]
[476] ДАТА: 2016-08-23 МОЩНОСТЬ: 77.948 [кВт] СУММА: 389.74 [руб]
[477] ДАТА: 2016-08-22 МОЩНОСТЬ: 77.948 [кВт] СУММА: 389.74 [руб]
[478] ДАТА: 2016-08-21 МОЩНОСТЬ: 77.003 [кВт] СУММА: 385.015 [руб]
[479] ДАТА: 2016-08-20 МОЩНОСТЬ: 74.352 [кВт] СУММА: 371.76 [руб]
[480] ДАТА: 2016-08-16 МОЩНОСТЬ: 71.45 [кВт] СУММА: 357.25 [руб]
[481] ДАТА: 2016-08-15 МОЩНОСТЬ: 71.45 [кВт] СУММА: 357.25 [руб]
[482] ДАТА: 2016-08-14 МОЩНОСТЬ: 71.45 [кВт] СУММА: 357.25 [руб]
[483] ДАТА: 2016-08-13 МОЩНОСТЬ: 71.45 [кВт] СУММА: 357.25 [руб]
[484] ДАТА: 2016-08-10 МОЩНОСТЬ: 71.45 [кВт] СУММА: 357.25 [руб]
[485] ДАТА: 2016-08-09 МОЩНОСТЬ: 71.45 [кВт] СУММА: 357.25 [руб]
[486] ДАТА: 2016-08-08 МОЩНОСТЬ: 71.45 [кВт] СУММА: 357.25 [руб]
[487] ДАТА: 2016-08-07 МОЩНОСТЬ: 71.45 [кВт] СУММА: 357.25 [руб]
[488] ДАТА: 2016-08-04 МОЩНОСТЬ: 67.862 [кВт] СУММА: 339.31 [руб]
[489] ДАТА: 2016-08-03 МОЩНОСТЬ: 65.593 [кВт] СУММА: 327.965 [руб]
[490] ДАТА: 2016-08-02 МОЩНОСТЬ: 65.593 [кВт] СУММА: 327.965 [руб]
[491] ДАТА: 2016-08-01 МОЩНОСТЬ: 65.593 [кВт] СУММА: 327.965 [руб]
[492] ДАТА: 2016-07-31 МОЩНОСТЬ: 65.593 [кВт] СУММА: 327.965 [руб]
[493] ДАТА: 2016-07-30 МОЩНОСТЬ: 65.593 [кВт] СУММА: 327.965 [руб]
[494] ДАТА: 2016-07-29 МОЩНОСТЬ: 65.593 [кВт] СУММА: 327.965 [руб]
[495] ДАТА: 2016-07-28 МОЩНОСТЬ: 65.593 [кВт] СУММА: 327.965 [руб]
[496] ДАТА: 2016-07-27 МОЩНОСТЬ: 65.593 [кВт] СУММА: 327.965 [руб]
[497] ДАТА: 2016-07-26 МОЩНОСТЬ: 65.593 [кВт] СУММА: 327.965 [руб]
[498] ДАТА: 2016-07-25 МОЩНОСТЬ: 65.593 [кВт] СУММА: 327.965 [руб]
[499] ДАТА: 2016-07-24 МОЩНОСТЬ: 64.699 [кВт] СУММА: 323.495 [руб]
[500] ДАТА: 2016-07-23 МОЩНОСТЬ: 64.023 [кВт] СУММА: 320.115 [руб]